createdAt,value
2019-03-11T00:04:42.646Z,1.50
2019-03-11T00:09:47.703Z,1.60
2019-03-11T00:14:53.060Z,1.60
2019-03-11T00:19:58.210Z,1.70
2019-03-11T00:25:03.276Z,1.70
2019-03-11T00:30:09.067Z,1.80
2019-03-11T00:35:14.165Z,1.90
2019-03-11T00:40:19.249Z,2.00
2019-03-11T00:45:24.536Z,2.10
2019-03-11T00:50:29.634Z,2.40
2019-03-11T00:55:34.700Z,2.60
2019-03-11T01:00:39.770Z,2.80
2019-03-11T01:05:46.511Z,2.90
2019-03-11T01:10:51.485Z,3.10
2019-03-11T01:15:58.364Z,3.10
2019-03-11T01:21:03.674Z,3.00
2019-03-11T01:26:08.728Z,3.10
2019-03-11T01:31:13.778Z,3.10
2019-03-11T01:36:19.139Z,3.00
2019-03-11T01:41:24.192Z,3.10
2019-03-11T01:46:29.217Z,3.10
2019-03-11T01:51:34.302Z,3.00
2019-03-11T01:56:39.353Z,3.10
2019-03-11T02:01:44.381Z,3.10
2019-03-11T02:06:51.220Z,3.20
2019-03-11T02:11:56.359Z,3.30
2019-03-11T02:17:01.412Z,3.30
2019-03-11T02:22:06.465Z,3.30
2019-03-11T02:27:11.454Z,3.30
2019-03-11T02:32:16.576Z,3.30
2019-03-11T02:37:21.935Z,3.30
2019-03-11T02:42:27.001Z,3.20
2019-03-11T02:47:32.041Z,3.00
2019-03-11T02:52:37.401Z,3.00
2019-03-11T02:57:42.455Z,3.10
2019-03-11T03:03:24.987Z,3.00
2019-03-11T03:08:30.042Z,3.10
2019-03-11T03:13:35.168Z,2.90
2019-03-11T03:18:42.626Z,2.90
2019-03-11T03:23:47.050Z,2.80
2019-03-11T03:28:52.407Z,2.80
2019-03-11T03:33:59.180Z,2.90
2019-03-11T03:39:05.892Z,3.00
2019-03-11T03:44:10.948Z,3.10
2019-03-11T03:49:16.309Z,3.10
2019-03-11T03:54:21.359Z,3.10
2019-03-11T03:59:26.418Z,3.10
2019-03-11T04:04:31.470Z,3.20
2019-03-11T04:09:36.832Z,3.10
2019-03-11T04:14:42.191Z,3.00
2019-03-11T04:19:47.244Z,2.90
2019-03-11T04:24:52.605Z,2.90
2019-03-11T04:29:57.973Z,2.90
2019-03-11T04:35:02.940Z,3.00
2019-03-11T04:40:09.010Z,2.90
2019-03-11T04:45:14.810Z,2.90
2019-03-11T04:50:19.885Z,3.00
2019-03-11T04:55:25.381Z,2.90
2019-03-11T05:00:30.437Z,2.90
2019-03-11T05:05:35.489Z,2.90
2019-03-11T05:10:42.354Z,2.90
2019-03-11T05:15:47.439Z,2.80
2019-03-11T05:20:53.107Z,2.70
2019-03-11T05:25:58.468Z,2.60
2019-03-11T05:31:03.524Z,2.50
2019-03-11T05:36:08.576Z,2.50
2019-03-11T05:41:13.936Z,2.60
2019-03-11T05:46:18.924Z,2.60
2019-03-11T05:51:31.540Z,2.60
2019-03-11T05:56:31.011Z,2.50
2019-03-11T06:01:36.035Z,2.40
2019-03-11T06:06:41.356Z,2.20
2019-03-11T06:11:46.408Z,2.20
2019-03-11T06:16:51.770Z,2.30
2019-03-11T06:22:04.889Z,2.30
2019-03-11T06:27:10.171Z,2.20
2019-03-11T06:32:15.168Z,2.10
2019-03-11T06:37:20.279Z,2.00
2019-03-11T06:42:25.639Z,2.00
2019-03-11T06:47:30.663Z,2.10
2019-03-11T06:52:36.052Z,1.90
2019-03-11T06:57:41.282Z,1.80
2019-03-11T07:02:46.784Z,1.80
2019-03-11T07:07:51.834Z,1.70
2019-03-11T07:12:56.881Z,1.80
2019-03-11T07:18:02.245Z,1.90
2019-03-11T07:23:07.626Z,1.90
2019-03-11T07:28:12.965Z,2.00
2019-03-11T07:33:17.993Z,2.10
2019-03-11T07:38:23.071Z,2.30
2019-03-11T07:43:28.436Z,2.30
2019-03-11T07:48:33.487Z,2.40
2019-03-11T07:53:38.811Z,2.50
2019-03-11T07:58:43.922Z,2.70
2019-03-11T08:03:49.029Z,3.00
2019-03-11T08:08:54.314Z,3.10
2019-03-11T08:13:59.369Z,3.20
2019-03-11T08:19:04.728Z,3.20
2019-03-11T08:24:09.781Z,3.30
2019-03-11T08:29:14.769Z,3.50
2019-03-11T08:34:19.888Z,3.70
2019-03-11T08:39:24.942Z,3.90
2019-03-11T08:44:30.071Z,4.10
2019-03-11T08:49:35.358Z,4.20
2019-03-11T08:54:40.410Z,4.40
2019-03-11T08:59:45.771Z,4.70
2019-03-11T09:04:50.826Z,5.00
2019-03-11T09:09:56.187Z,5.00
2019-03-11T09:15:01.211Z,5.00
2019-03-11T09:20:07.022Z,4.90
2019-03-11T09:25:13.708Z,4.90
2019-03-11T09:30:19.495Z,4.80
2019-03-11T09:35:24.527Z,4.40
2019-03-11T09:40:29.650Z,4.00
2019-03-11T09:45:34.666Z,3.50
2019-03-11T09:50:39.994Z,3.00
2019-03-11T09:55:46.287Z,2.90
2019-03-11T10:00:51.637Z,2.30
2019-03-11T10:05:56.691Z,1.70
2019-03-11T10:11:01.744Z,1.40
2019-03-11T10:16:06.796Z,1.20
2019-03-11T10:21:12.158Z,1.20
2019-03-11T10:26:17.518Z,1.30
2019-03-11T10:31:22.888Z,1.60
2019-03-11T10:36:27.936Z,2.00
2019-03-11T10:41:32.987Z,2.60
2019-03-11T10:46:39.036Z,2.60
2019-03-11T10:51:44.061Z,2.40
2019-03-11T10:56:49.377Z,2.50
2019-03-11T11:07:59.423Z,2.50
2019-03-11T11:13:04.749Z,2.70
2019-03-11T11:18:10.416Z,2.90
2019-03-11T11:23:16.735Z,3.30
2019-03-11T11:28:21.801Z,3.80
2019-03-11T11:33:26.796Z,4.30
2019-03-11T11:38:31.861Z,5.10
2019-03-11T11:43:36.913Z,5.70
2019-03-11T11:48:42.274Z,6.20
2019-03-11T11:53:47.329Z,6.00
2019-03-11T11:58:52.381Z,5.80
2019-03-11T12:03:57.434Z,5.50
2019-03-11T12:09:02.465Z,5.00
2019-03-11T12:14:07.542Z,4.50
2019-03-11T12:19:12.904Z,4.70
2019-03-11T12:24:17.957Z,5.00
2019-03-11T12:29:24.042Z,5.20
2019-03-11T12:34:29.100Z,5.50
2019-03-11T12:39:34.346Z,5.60
2019-03-11T12:44:39.326Z,5.70
2019-03-11T12:49:44.453Z,5.70
2019-03-11T12:54:49.577Z,5.70
2019-03-11T12:59:54.868Z,5.80
2019-03-11T13:04:59.927Z,5.80
2019-03-11T13:10:06.160Z,5.90
2019-03-11T13:15:13.715Z,5.90
2019-03-11T13:20:26.961Z,5.80
2019-03-11T13:25:32.423Z,5.70
2019-03-11T13:30:37.479Z,6.20
2019-03-11T13:35:42.532Z,6.40
2019-03-11T13:40:47.584Z,5.80
2019-03-11T13:45:52.605Z,5.50
2019-03-11T13:50:57.618Z,5.50
2019-03-11T13:56:02.629Z,5.60
2019-03-11T14:01:07.666Z,5.70
2019-03-11T14:06:12.681Z,5.90
2019-03-11T14:11:18.006Z,6.10
2019-03-11T14:16:23.271Z,6.30
2019-03-11T14:21:28.630Z,6.30
2019-03-11T14:26:33.684Z,6.20
2019-03-11T14:31:39.045Z,6.30
2019-03-11T14:36:44.066Z,6.50
2019-03-11T14:41:49.151Z,6.30
2019-03-11T14:46:54.510Z,6.20
2019-03-11T14:51:59.533Z,6.50
2019-03-11T14:57:04.518Z,6.70
2019-03-11T15:02:10.150Z,6.50
2019-03-11T15:07:15.338Z,6.30
2019-03-11T15:12:21.405Z,6.40
2019-03-11T15:17:26.669Z,6.40
2019-03-11T15:22:31.697Z,6.20
2019-03-11T15:27:37.096Z,6.20
2019-03-11T15:32:42.147Z,6.30
2019-03-11T15:38:10.491Z,6.40
2019-03-11T15:43:15.662Z,6.30
2019-03-11T15:48:20.958Z,6.20
2019-03-11T15:53:25.992Z,6.00
2019-03-11T15:58:31.066Z,6.10
2019-03-11T16:03:36.728Z,6.20
2019-03-11T16:08:42.402Z,5.70
2019-03-11T16:13:47.455Z,5.40
2019-03-11T16:18:52.518Z,5.40
2019-03-11T16:23:59.365Z,5.30
2019-03-11T16:29:04.529Z,5.50
2019-03-11T16:34:09.823Z,5.80
2019-03-11T16:39:14.793Z,5.90
2019-03-11T16:44:19.793Z,5.80
2019-03-11T16:49:24.990Z,5.70
2019-03-11T16:54:30.033Z,5.70
2019-03-11T16:59:35.089Z,5.60
2019-03-11T17:04:40.106Z,5.50
2019-03-11T17:09:45.161Z,5.40
2019-03-11T17:14:50.198Z,5.40
2019-03-11T17:19:55.197Z,5.20
2019-03-11T17:25:00.367Z,5.10
2019-03-11T17:30:06.886Z,5.00
2019-03-11T17:35:12.272Z,5.00
2019-03-11T17:40:17.879Z,5.00
2019-03-11T17:45:23.155Z,5.00
2019-03-11T17:50:28.390Z,4.90
2019-03-11T17:55:33.443Z,4.90
2019-03-11T18:00:40.625Z,4.80
2019-03-11T18:05:46.154Z,4.70
2019-03-11T18:10:51.366Z,4.60
2019-03-11T18:15:56.421Z,4.70
2019-03-11T18:21:01.408Z,4.80
2019-03-11T18:26:06.501Z,4.90
2019-03-11T18:31:11.583Z,4.80
2019-03-11T18:36:17.628Z,4.80
2019-03-11T18:41:22.695Z,4.70
2019-03-11T18:46:27.987Z,4.60
2019-03-11T18:51:33.009Z,4.70
2019-03-11T18:56:38.058Z,4.80
2019-03-11T19:01:43.038Z,4.70
2019-03-11T19:06:48.185Z,4.40
2019-03-11T19:11:53.244Z,4.30
2019-03-11T19:16:58.227Z,4.30
2019-03-11T19:22:03.258Z,4.20
2019-03-11T19:27:11.346Z,4.20
2019-03-11T19:32:16.759Z,4.20
2019-03-11T19:37:21.759Z,4.00
2019-03-11T19:42:26.841Z,3.80
2019-03-11T19:47:33.463Z,3.80
2019-03-11T19:52:41.103Z,3.90
2019-03-11T19:57:48.863Z,4.00
2019-03-11T20:02:56.550Z,4.10
2019-03-11T20:08:03.323Z,4.20
2019-03-11T20:13:12.153Z,4.50
2019-03-11T20:18:19.338Z,4.70
2019-03-11T20:23:27.493Z,4.70
2019-03-11T20:28:34.882Z,4.70
2019-03-11T20:33:42.293Z,4.80
2019-03-11T20:38:49.968Z,4.60
2019-03-11T20:43:57.678Z,4.40
2019-03-11T20:49:04.413Z,4.40
2019-03-11T20:54:10.790Z,4.30
2019-03-11T20:59:15.946Z,4.30
2019-03-11T21:04:20.902Z,4.20
2019-03-11T21:09:25.904Z,4.10
2019-03-11T21:14:31.087Z,3.90
2019-03-11T21:19:36.137Z,3.80
2019-03-11T21:24:41.608Z,3.70
2019-03-11T21:29:46.868Z,3.80
2019-03-11T21:34:51.948Z,3.80
2019-03-11T21:39:57.294Z,3.70
2019-03-11T21:45:02.349Z,3.70
2019-03-11T21:50:09.574Z,3.80
2019-03-11T21:55:14.922Z,3.90
2019-03-11T22:00:32.759Z,4.10
2019-03-11T22:05:28.445Z,4.20
2019-03-11T22:10:33.735Z,4.30
2019-03-11T22:15:41.737Z,4.30
2019-03-11T22:20:47.347Z,4.30
2019-03-11T22:25:52.529Z,4.30
2019-03-11T22:30:57.824Z,4.30
2019-03-11T22:36:02.998Z,4.20
2019-03-11T22:41:08.358Z,4.10
2019-03-11T22:46:13.413Z,4.20
2019-03-11T22:51:18.467Z,4.20
2019-03-11T22:56:24.598Z,4.20
2019-03-11T23:01:31.261Z,4.00
2019-03-11T23:06:36.699Z,3.90
2019-03-11T23:11:45.200Z,3.70
2019-03-11T23:16:50.492Z,3.60
2019-03-11T23:21:55.854Z,3.50
2019-03-11T23:27:01.130Z,3.40
2019-03-11T23:32:06.271Z,3.30
2019-03-11T23:37:11.936Z,3.20
2019-03-11T23:42:17.297Z,3.20
2019-03-11T23:47:22.965Z,3.20
2019-03-11T23:52:28.325Z,3.20
2019-03-11T23:57:35.071Z,3.20
